Terminal Aerodrome Forecast
Issued by NWS

Home | Current Version | Previous Version | Graphics & Text | Print | Product List | Glossary Off
Versions: 1 2 3 4 5 6 7 8 9 10 11 12 13 14 15 16 17 18 19

000
FTUS43 KDDC 291124
TAFHYS
TAF
KHYS 291124Z 2912/3012 VRB06KT P6SM SCT120
     FM291600 19009KT P6SM FEW100
     FM292000 18014KT P6SM VCSH SCT080
     FM300100 16009KT P6SM SKC=

USA.gov is the U.S. government's official web portal to all federal, state and local government web resources and services.